createdAt,value
2018-05-28T00:02:19.535Z,11.47
2018-05-28T00:04:47.892Z,12.40
2018-05-28T00:07:15.615Z,12.20
2018-05-28T00:09:43.995Z,13.63
2018-05-28T00:12:12.453Z,11.93
2018-05-28T00:14:41.175Z,11.57
2018-05-28T00:17:08.910Z,12.50
2018-05-28T00:19:36.782Z,12.90
2018-05-28T00:22:04.869Z,13.03
2018-05-28T00:24:32.880Z,13.40
2018-05-28T00:27:02.448Z,12.10
2018-05-28T00:29:33.140Z,13.65
2018-05-28T00:32:00.892Z,12.20
2018-05-28T00:34:29.428Z,13.30
2018-05-28T00:36:57.916Z,13.03
2018-05-28T00:39:26.360Z,13.60
2018-05-28T00:41:54.055Z,13.47
2018-05-28T00:44:23.638Z,12.55
2018-05-28T00:46:52.351Z,11.37
2018-05-28T00:49:21.003Z,11.80
2018-05-28T00:51:49.394Z,11.70
2018-05-28T00:54:21.013Z,13.47
2018-05-28T00:56:48.685Z,12.00
2018-05-28T00:59:16.284Z,12.90
2018-05-28T01:01:45.533Z,13.60
2018-05-28T01:04:14.185Z,12.23
2018-05-28T01:06:42.894Z,13.67
2018-05-28T01:09:12.305Z,13.70
2018-05-28T01:11:40.833Z,12.10
2018-05-28T01:14:08.489Z,13.57
2018-05-28T01:16:36.185Z,12.10
2018-05-28T01:19:03.922Z,13.40
2018-05-28T01:21:31.656Z,12.10
2018-05-28T01:23:59.332Z,12.83
2018-05-28T01:26:27.010Z,13.95
2018-05-28T01:28:55.387Z,13.07
2018-05-28T01:31:23.040Z,14.27
2018-05-28T01:33:51.083Z,13.40
2018-05-28T01:36:18.758Z,12.70
2018-05-28T01:38:46.758Z,11.20
2018-05-28T01:41:15.183Z,10.90
2018-05-28T01:43:42.886Z,10.90
2018-05-28T01:46:11.149Z,11.53
2018-05-28T01:48:39.653Z,11.37
2018-05-28T01:51:07.364Z,12.47
2018-05-28T01:53:36.911Z,12.10
2018-05-28T01:56:04.624Z,11.83
2018-05-28T01:58:33.143Z,10.30
2018-05-28T02:01:01.080Z,9.27
2018-05-28T02:03:28.802Z,8.40
2018-05-28T02:05:56.806Z,8.83
2018-05-28T02:08:24.401Z,8.37
2018-05-28T02:10:52.341Z,8.30
2018-05-28T02:13:20.518Z,7.60
2018-05-28T02:15:48.165Z,8.10
2018-05-28T02:18:15.824Z,7.05
2018-05-28T02:20:43.495Z,6.73
2018-05-28T02:23:12.048Z,6.17
2018-05-28T02:25:40.281Z,7.17
2018-05-28T02:28:08.773Z,7.47
2018-05-28T02:30:38.168Z,7.03
2018-05-28T02:33:06.696Z,7.00
2018-05-28T02:35:34.678Z,7.00
2018-05-28T02:38:03.770Z,7.80
2018-05-28T02:40:33.202Z,8.43
2018-05-28T02:43:00.867Z,7.60
2018-05-28T02:45:30.879Z,7.30
2018-05-28T02:47:58.615Z,7.93
2018-05-28T02:50:27.789Z,8.30
2018-05-28T02:52:55.489Z,8.03
2018-05-28T02:55:23.247Z,8.83
2018-05-28T02:57:51.102Z,8.53
2018-05-28T03:00:18.950Z,12.30
2018-05-28T03:02:46.782Z,9.67
2018-05-28T03:05:14.614Z,8.60
2018-05-28T03:07:42.338Z,8.80
2018-05-28T03:10:10.112Z,11.07
2018-05-28T03:12:37.766Z,11.20
2018-05-28T03:15:05.464Z,10.70
2018-05-28T03:17:33.465Z,12.57
2018-05-28T03:20:02.161Z,13.10
2018-05-28T03:22:30.737Z,14.50
2018-05-28T03:25:00.586Z,16.10
2018-05-28T03:27:29.063Z,14.30
2018-05-28T03:29:57.995Z,17.40
2018-05-28T03:32:26.761Z,15.30
2018-05-28T03:34:54.495Z,17.90
2018-05-28T03:37:22.757Z,23.75
2018-05-28T03:39:52.085Z,16.27
2018-05-28T03:42:19.723Z,17.40
2018-05-28T03:44:52.096Z,18.10
2018-05-28T03:47:20.608Z,17.23
2018-05-28T03:49:49.495Z,16.07
2018-05-28T03:52:19.114Z,17.00
2018-05-28T03:54:47.830Z,17.47
2018-05-28T03:57:16.967Z,18.33
2018-05-28T03:59:56.616Z,17.10
2018-05-28T04:02:36.251Z,17.13
2018-05-28T04:05:15.942Z,16.93
2018-05-28T04:07:44.667Z,18.25
2018-05-28T04:10:14.706Z,17.17
2018-05-28T04:12:43.238Z,17.30
2018-05-28T04:15:11.744Z,15.93
2018-05-28T04:17:39.417Z,17.10
2018-05-28T04:20:08.268Z,15.53
2018-05-28T04:22:37.201Z,14.20
2018-05-28T04:25:09.383Z,14.03
2018-05-28T04:27:37.980Z,13.90
2018-05-28T04:30:05.807Z,14.80
2018-05-28T04:32:34.642Z,19.73
2018-05-28T04:35:02.493Z,16.35
2018-05-28T04:37:30.243Z,14.70
2018-05-28T04:39:59.286Z,14.20
2018-05-28T04:42:26.976Z,14.07
2018-05-28T04:44:54.687Z,15.43
2018-05-28T04:47:22.443Z,15.07
2018-05-28T04:49:51.723Z,16.47
2018-05-28T04:52:19.517Z,15.63
2018-05-28T04:54:48.722Z,15.77
2018-05-28T04:57:16.460Z,14.90
2018-05-28T04:59:44.146Z,15.90
2018-05-28T05:02:12.879Z,16.30
2018-05-28T05:04:42.438Z,16.30
2018-05-28T05:07:10.669Z,14.67
2018-05-28T05:09:39.472Z,14.33
2018-05-28T05:12:07.557Z,15.20
2018-05-28T05:14:35.780Z,15.00
2018-05-28T05:17:03.496Z,15.17
2018-05-28T05:19:31.207Z,13.73
2018-05-28T05:21:59.170Z,15.80
2018-05-28T05:24:27.735Z,17.17
2018-05-28T05:26:55.712Z,17.87
2018-05-28T05:29:24.521Z,15.57
2018-05-28T05:31:52.800Z,19.17
2018-05-28T05:34:22.961Z,17.23
2018-05-28T05:36:51.966Z,17.85
2018-05-28T05:39:20.643Z,21.97
2018-05-28T05:41:48.342Z,19.97
2018-05-28T05:44:16.119Z,20.70
2018-05-28T05:46:44.003Z,17.80
2018-05-28T05:49:12.192Z,19.30
2018-05-28T05:51:41.594Z,17.13
2018-05-28T05:54:13.057Z,15.93
2018-05-28T05:56:46.679Z,30.80
2018-05-28T05:59:15.953Z,17.53
2018-05-28T06:01:45.451Z,14.20
2018-05-28T06:04:14.172Z,13.70
2018-05-28T06:06:42.061Z,13.10
2018-05-28T06:09:09.602Z,13.60
2018-05-28T06:11:37.110Z,12.57
2018-05-28T06:14:04.638Z,12.43
2018-05-28T06:16:32.142Z,12.90
2018-05-28T06:18:59.642Z,12.03
2018-05-28T06:21:34.587Z,12.17
2018-05-28T06:24:02.243Z,12.03
2018-05-28T06:26:29.797Z,11.97
2018-05-28T06:29:02.857Z,11.87
2018-05-28T06:31:30.928Z,11.15
2018-05-28T06:33:58.577Z,11.70
2018-05-28T06:36:29.908Z,11.57
2018-05-28T06:38:58.550Z,11.27
2018-05-28T06:41:30.609Z,9.60
2018-05-28T06:43:59.179Z,10.40
2018-05-28T06:46:26.809Z,11.90
2018-05-28T06:48:55.225Z,10.65
2018-05-28T06:51:22.887Z,9.03
2018-05-28T06:53:50.548Z,9.27
2018-05-28T06:56:21.950Z,8.85
2018-05-28T06:58:51.282Z,8.90
2018-05-28T07:01:20.437Z,8.70
2018-05-28T07:03:49.485Z,10.70
2018-05-28T07:06:17.941Z,11.53
2018-05-28T07:08:45.662Z,9.53
2018-05-28T07:11:14.804Z,12.97
2018-05-28T07:13:43.388Z,8.80
2018-05-28T07:16:12.843Z,8.00
2018-05-28T07:18:40.369Z,8.70
2018-05-28T07:21:10.736Z,8.13
2018-05-28T07:23:38.409Z,7.17
2018-05-28T07:26:05.952Z,7.70
2018-05-28T07:28:34.319Z,9.20
2018-05-28T07:31:02.924Z,7.80
2018-05-28T07:33:31.626Z,7.00
2018-05-28T07:36:01.420Z,9.90
2018-05-28T07:38:29.393Z,8.50
2018-05-28T07:40:56.964Z,7.07
2018-05-28T07:43:24.643Z,7.07
2018-05-28T07:45:53.850Z,7.45
2018-05-28T07:48:22.967Z,6.30
2018-05-28T07:50:51.279Z,6.75
2018-05-28T07:53:19.104Z,6.40
2018-05-28T07:55:47.467Z,6.30
2018-05-28T07:58:17.011Z,6.10
2018-05-28T08:00:44.626Z,7.20
2018-05-28T08:03:14.376Z,6.13
2018-05-28T08:05:43.189Z,5.50
2018-05-28T08:08:10.935Z,4.37
2018-05-28T08:10:38.692Z,5.80
2018-05-28T08:13:07.015Z,4.87
2018-05-28T08:15:34.528Z,5.00
2018-05-28T08:18:03.040Z,5.80
2018-05-28T08:20:30.563Z,5.80
2018-05-28T08:22:59.906Z,5.43
2018-05-28T08:25:27.423Z,5.63
2018-05-28T08:27:55.777Z,5.27
2018-05-28T08:30:23.719Z,5.73
2018-05-28T08:32:51.296Z,5.10
2018-05-28T08:35:18.850Z,5.57
2018-05-28T08:37:54.176Z,4.90
2018-05-28T08:40:21.779Z,4.17
2018-05-28T08:42:49.285Z,4.60
2018-05-28T08:45:16.805Z,5.07
2018-05-28T08:47:45.205Z,5.30
2018-05-28T08:50:12.731Z,4.40
2018-05-28T08:52:40.300Z,4.13
2018-05-28T08:55:07.997Z,4.10
2018-05-28T08:57:35.821Z,4.17
2018-05-28T09:00:03.564Z,4.70
2018-05-28T09:02:31.075Z,3.30
2018-05-28T09:04:58.601Z,4.13
2018-05-28T09:07:27.291Z,3.70
2018-05-28T09:09:58.567Z,4.10
2018-05-28T09:34:39.803Z,3.30
2018-05-28T09:37:07.336Z,4.57
2018-05-28T09:42:04.233Z,3.37
2018-05-28T09:44:31.779Z,3.93
2018-05-28T09:47:02.548Z,3.40
2018-05-28T09:49:30.319Z,4.90
2018-05-28T09:51:57.869Z,4.07
2018-05-28T09:54:25.462Z,4.37
2018-05-28T09:56:53.055Z,4.77
2018-05-28T09:59:22.344Z,3.20
2018-05-28T10:01:50.636Z,3.70
2018-05-28T10:04:18.667Z,3.20
2018-05-28T10:06:46.425Z,3.27
2018-05-28T10:09:14.008Z,3.40
2018-05-28T10:11:41.664Z,2.80
2018-05-28T10:14:11.136Z,3.10
2018-05-28T10:16:40.532Z,6.90
2018-05-28T10:19:08.121Z,3.70
2018-05-28T10:26:30.063Z,3.27
2018-05-28T10:28:57.734Z,3.40
2018-05-28T10:31:25.251Z,3.30
2018-05-28T10:33:52.985Z,2.90
2018-05-28T10:36:20.480Z,2.70
2018-05-28T10:38:48.075Z,3.50
2018-05-28T10:41:15.671Z,2.57
2018-05-28T10:43:43.945Z,2.95
2018-05-28T10:46:12.227Z,2.97
2018-05-28T10:48:40.541Z,2.73
2018-05-28T10:51:08.093Z,2.77
2018-05-28T10:53:35.587Z,2.80
2018-05-28T10:56:03.092Z,3.00
2018-05-28T10:58:30.603Z,3.20
2018-05-28T11:00:58.115Z,3.35
2018-05-28T11:10:47.949Z,2.70
2018-05-28T11:13:15.471Z,3.60
2018-05-28T11:15:42.987Z,3.03
2018-05-28T11:18:10.487Z,3.50
2018-05-28T11:20:38.006Z,2.97
2018-05-28T11:23:05.535Z,2.80
2018-05-28T11:25:33.062Z,2.30
2018-05-28T11:50:12.608Z,2.00
2018-05-28T11:52:40.123Z,3.33
2018-05-28T12:04:57.543Z,2.40
2018-05-28T12:29:30.023Z,2.60
2018-05-28T12:31:57.521Z,2.60
2018-05-28T12:34:25.110Z,2.67
2018-05-28T12:36:52.687Z,2.67
2018-05-28T12:46:42.135Z,2.87
2018-05-28T12:49:09.632Z,3.00
2018-05-28T13:48:03.459Z,3.07
2018-05-28T13:50:31.735Z,3.03
2018-05-28T13:53:00.012Z,2.67
2018-05-28T13:55:28.287Z,3.20
2018-05-28T13:57:56.567Z,3.30
2018-05-28T14:00:24.859Z,2.87
2018-05-28T14:02:52.371Z,2.83
2018-05-28T14:05:19.900Z,2.63
2018-05-28T14:07:47.419Z,3.33
2018-05-28T14:10:15.704Z,3.27
2018-05-28T14:12:43.231Z,4.00
2018-05-28T14:22:31.943Z,4.50
2018-05-28T14:24:59.439Z,3.70
2018-05-28T14:27:26.927Z,3.00
2018-05-28T14:29:54.592Z,3.85
2018-05-28T14:32:22.122Z,3.30
2018-05-28T14:34:49.631Z,3.57
2018-05-28T14:37:17.127Z,3.30
2018-05-28T14:39:44.662Z,3.50
2018-05-28T14:42:12.935Z,3.50
2018-05-28T14:44:40.463Z,3.47
2018-05-28T14:47:07.974Z,2.90
2018-05-28T14:49:36.248Z,3.17
2018-05-28T14:52:04.527Z,3.73
2018-05-28T14:54:32.051Z,3.70
2018-05-28T14:56:59.546Z,3.73
2018-05-28T14:59:27.811Z,3.40
2018-05-28T15:01:56.148Z,4.27
2018-05-28T15:09:18.559Z,3.40
2018-05-28T15:14:14.675Z,3.70
2018-05-28T15:16:42.216Z,19.70
2018-05-28T15:19:09.719Z,25.27
2018-05-28T15:24:05.235Z,5.20
2018-05-28T15:26:32.731Z,4.23
2018-05-28T15:31:27.357Z,4.40
2018-05-28T15:33:54.895Z,6.37
2018-05-28T15:36:22.403Z,4.30
2018-05-28T15:38:50.083Z,4.23
2018-05-28T15:41:17.579Z,3.93
2018-05-28T15:43:45.095Z,4.20
2018-05-28T15:46:12.596Z,4.10
2018-05-28T15:48:40.167Z,4.10
2018-05-28T15:51:07.668Z,3.90
2018-05-28T15:53:35.176Z,3.90
2018-05-28T15:56:02.714Z,4.17
2018-05-28T15:58:30.999Z,3.53
2018-05-28T16:00:59.298Z,3.70
2018-05-28T16:03:26.824Z,4.33
2018-05-28T16:05:55.882Z,3.90
2018-05-28T16:37:48.330Z,4.00
2018-05-28T16:40:15.931Z,4.70
2018-05-28T21:02:05.981Z,5.80
2018-05-28T21:04:36.905Z,5.97
